createdAt,value
2018-05-14T00:02:02.002Z,31.63
2018-05-14T00:04:30.458Z,31.63
2018-05-14T00:06:58.569Z,30.97
2018-05-14T00:09:29.043Z,32.07
2018-05-14T00:11:57.303Z,30.67
2018-05-14T00:14:25.620Z,31.60
2018-05-14T00:16:54.234Z,31.40
2018-05-14T00:19:22.764Z,30.53
2018-05-14T00:21:50.938Z,31.37
2018-05-14T00:24:19.158Z,32.53
2018-05-14T00:26:48.434Z,31.53
2018-05-14T00:29:17.162Z,31.67
2018-05-14T00:31:45.383Z,31.10
2018-05-14T00:34:13.560Z,30.57
2018-05-14T00:36:41.712Z,31.57
2018-05-14T00:39:10.195Z,30.50
2018-05-14T00:41:38.342Z,30.00
2018-05-14T00:44:07.286Z,29.73
2018-05-14T00:46:35.794Z,29.77
2018-05-14T00:49:05.093Z,30.77
2018-05-14T00:51:34.031Z,30.97
2018-05-14T00:54:02.257Z,31.07
2018-05-14T00:56:30.464Z,29.73
2018-05-14T00:58:58.810Z,29.60
2018-05-14T01:01:27.954Z,31.80
2018-05-14T01:03:56.440Z,31.40
2018-05-14T01:06:27.731Z,30.50
2018-05-14T01:08:56.861Z,32.03
2018-05-14T01:11:26.162Z,31.50
2018-05-14T01:13:54.761Z,30.17
2018-05-14T01:16:22.865Z,30.50
2018-05-14T01:18:51.355Z,30.13
2018-05-14T01:21:20.600Z,29.93
2018-05-14T01:23:50.270Z,29.00
2018-05-14T01:26:20.255Z,29.73
2018-05-14T01:28:48.923Z,30.50
2018-05-14T01:31:17.434Z,30.80
2018-05-14T01:33:47.210Z,31.70
2018-05-14T01:36:15.743Z,32.80
2018-05-14T01:38:45.893Z,32.83
2018-05-14T01:41:14.721Z,33.83
2018-05-14T01:43:43.531Z,33.13
2018-05-14T01:46:12.888Z,34.33
2018-05-14T01:48:41.038Z,33.63
2018-05-14T01:51:10.566Z,34.90
2018-05-14T01:53:39.159Z,33.30
2018-05-14T01:56:07.650Z,33.60
2018-05-14T01:58:36.215Z,33.90
2018-05-14T02:01:06.104Z,34.67
2018-05-14T02:03:35.857Z,33.73
2018-05-14T02:06:04.318Z,33.57
2018-05-14T02:08:33.150Z,33.57
2018-05-14T02:11:02.402Z,30.43
2018-05-14T02:13:30.809Z,30.43
2018-05-14T02:15:59.294Z,30.33
2018-05-14T02:18:27.843Z,31.67
2018-05-14T02:20:57.325Z,31.67
2018-05-14T02:23:26.811Z,29.10
2018-05-14T02:25:55.566Z,27.23
2018-05-14T02:28:23.648Z,28.20
2018-05-14T02:30:53.477Z,26.23
2018-05-14T02:33:22.828Z,25.97
2018-05-14T02:35:51.519Z,26.80
2018-05-14T02:38:20.540Z,27.57
2018-05-14T02:40:48.930Z,27.67
2018-05-14T02:43:17.805Z,26.83
2018-05-14T02:45:46.295Z,27.67
2018-05-14T02:48:14.432Z,25.53
2018-05-14T02:50:43.280Z,26.33
2018-05-14T02:53:11.668Z,25.10
2018-05-14T02:55:40.226Z,24.87
2018-05-14T02:58:09.816Z,23.87
2018-05-14T03:00:38.889Z,23.57
2018-05-14T03:03:07.561Z,25.37
2018-05-14T03:05:35.818Z,24.47
2018-05-14T03:08:04.515Z,23.33
2018-05-14T03:10:33.220Z,21.53
2018-05-14T03:13:01.339Z,21.40
2018-05-14T03:15:31.528Z,19.17
2018-05-14T03:17:59.920Z,19.30
2018-05-14T03:20:28.834Z,18.57
2018-05-14T03:22:57.258Z,17.33
2018-05-14T03:25:25.886Z,18.77
2018-05-14T03:27:55.553Z,19.20
2018-05-14T03:30:23.592Z,19.47
2018-05-14T03:32:52.381Z,18.93
2018-05-14T03:35:21.348Z,18.90
2018-05-14T03:37:49.565Z,17.87
2018-05-14T03:40:17.950Z,17.13
2018-05-14T03:42:46.839Z,18.83
2018-05-14T03:45:15.677Z,18.33
2018-05-14T03:47:44.629Z,18.43
2018-05-14T03:50:12.985Z,20.27
2018-05-14T03:52:41.293Z,20.10
2018-05-14T03:55:09.711Z,18.60
2018-05-14T03:57:37.751Z,18.70
2018-05-14T04:01:15.703Z,18.67
2018-05-14T04:03:56.159Z,18.67
2018-05-14T04:06:33.084Z,20.23
2018-05-14T04:09:02.399Z,20.87
2018-05-14T04:11:30.517Z,18.63
2018-05-14T04:13:59.543Z,20.60
2018-05-14T04:16:28.937Z,18.00
2018-05-14T04:18:58.345Z,17.93
2018-05-14T04:21:26.515Z,16.13
2018-05-14T04:23:55.262Z,14.30
2018-05-14T04:26:23.541Z,13.17
2018-05-14T04:28:52.201Z,11.23
2018-05-14T04:31:20.890Z,10.70
2018-05-14T04:33:49.027Z,11.23
2018-05-14T04:36:17.842Z,11.33
2018-05-14T04:38:46.373Z,13.10
2018-05-14T04:41:14.794Z,16.93
2018-05-14T04:43:43.253Z,13.70
2018-05-14T04:46:11.424Z,15.80
2018-05-14T04:48:39.568Z,12.40
2018-05-14T04:51:08.998Z,9.13
2018-05-14T04:53:37.080Z,7.30
2018-05-14T04:56:05.212Z,7.30
2018-05-14T04:58:33.422Z,7.60
2018-05-14T05:01:01.905Z,8.63
2018-05-14T05:03:30.075Z,8.27
2018-05-14T05:05:58.202Z,8.90
2018-05-14T05:08:26.930Z,8.47
2018-05-14T05:10:55.665Z,9.67
2018-05-14T05:13:24.350Z,9.37
2018-05-14T05:15:53.416Z,8.13
2018-05-14T05:18:22.053Z,7.33
2018-05-14T05:20:50.396Z,7.20
2018-05-14T05:23:19.658Z,7.13
2018-05-14T05:25:48.651Z,7.40
2018-05-14T05:28:17.267Z,6.93
2018-05-14T05:30:45.502Z,6.80
2018-05-14T05:33:14.057Z,6.60
2018-05-14T05:35:43.657Z,6.17
2018-05-14T05:38:11.739Z,6.00
2018-05-14T05:40:40.081Z,6.17
2018-05-14T05:43:08.291Z,6.30
2018-05-14T05:45:37.170Z,6.63
2018-05-14T05:48:05.785Z,6.63
2018-05-14T05:50:33.913Z,5.83
2018-05-14T05:53:02.235Z,6.60
2018-05-14T05:55:30.629Z,6.53
2018-05-14T05:57:58.930Z,5.57
2018-05-14T06:00:27.857Z,7.00
2018-05-14T06:02:56.217Z,5.43
2018-05-14T06:05:24.730Z,6.17
2018-05-14T06:07:53.487Z,5.83
2018-05-14T06:10:22.335Z,5.57
2018-05-14T06:12:50.567Z,5.33
2018-05-14T06:15:19.687Z,5.80
2018-05-14T06:17:47.844Z,5.87
2018-05-14T06:20:16.261Z,5.80
2018-05-14T06:22:44.935Z,6.03
2018-05-14T06:25:13.936Z,5.87
2018-05-14T06:27:41.998Z,5.80
2018-05-14T06:30:10.266Z,5.87
2018-05-14T06:32:38.661Z,5.53
2018-05-14T06:35:06.784Z,5.60
2018-05-14T06:37:35.116Z,5.40
2018-05-14T06:40:03.560Z,5.30
2018-05-14T06:42:31.758Z,5.13
2018-05-14T06:45:00.597Z,5.73
2018-05-14T06:47:28.920Z,5.50
2018-05-14T06:49:57.275Z,5.47
2018-05-14T06:52:25.665Z,6.20
2018-05-14T06:54:53.986Z,5.33
2018-05-14T06:57:22.206Z,4.87
2018-05-14T06:59:50.542Z,5.17
2018-05-14T07:02:18.812Z,5.13
2018-05-14T07:04:48.142Z,4.67
2018-05-14T07:07:17.455Z,5.00
2018-05-14T07:09:45.614Z,5.10
2018-05-14T07:12:13.734Z,4.87
2018-05-14T07:14:42.082Z,4.47
2018-05-14T07:17:10.331Z,5.50
2018-05-14T07:19:38.408Z,5.10
2018-05-14T07:22:06.932Z,4.97
2018-05-14T07:24:35.197Z,4.57
2018-05-14T07:27:03.483Z,5.13
2018-05-14T07:29:31.645Z,4.70
2018-05-14T07:31:59.818Z,4.53
2018-05-14T07:34:28.699Z,5.10
2018-05-14T07:36:56.781Z,6.00
2018-05-14T07:39:24.995Z,8.20
2018-05-14T07:41:54.177Z,6.90
2018-05-14T07:44:22.346Z,5.33
2018-05-14T07:46:50.422Z,5.20
2018-05-14T07:49:18.810Z,5.30
2018-05-14T07:51:48.697Z,4.77
2018-05-14T07:54:16.835Z,5.20
2018-05-14T07:56:44.958Z,4.67
2018-05-14T07:59:13.098Z,5.77
2018-05-14T08:01:41.266Z,4.60
2018-05-14T08:04:09.422Z,4.57
2018-05-14T08:06:37.512Z,4.00
2018-05-14T08:09:06.028Z,4.17
2018-05-14T08:11:34.243Z,4.63
2018-05-14T08:14:02.312Z,4.50
2018-05-14T08:16:30.621Z,4.50
2018-05-14T08:18:58.784Z,4.10
2018-05-14T08:21:27.083Z,4.80
2018-05-14T08:23:55.628Z,4.73
2018-05-14T08:26:24.466Z,4.17
2018-05-14T08:28:52.774Z,3.90
2018-05-14T08:31:21.907Z,3.63
2018-05-14T08:33:49.958Z,4.27
2018-05-14T08:36:18.225Z,4.60
2018-05-14T08:38:46.301Z,4.50
2018-05-14T08:41:14.435Z,4.43
2018-05-14T08:43:42.457Z,4.00
2018-05-14T08:46:10.686Z,4.03
2018-05-14T08:48:39.203Z,4.17
2018-05-14T08:51:07.287Z,3.90
2018-05-14T08:53:35.530Z,3.80
2018-05-14T08:56:05.211Z,4.33
2018-05-14T08:58:33.309Z,4.23
2018-05-14T09:01:01.381Z,4.20
2018-05-14T09:03:30.463Z,4.50
2018-05-14T09:05:58.704Z,4.00
2018-05-14T09:08:28.050Z,4.20
2018-05-14T09:10:56.625Z,4.33
2018-05-14T09:13:25.419Z,4.73
2018-05-14T09:15:53.778Z,4.30
2018-05-14T09:18:22.788Z,4.30
2018-05-14T09:20:51.817Z,4.20
2018-05-14T09:23:20.205Z,4.13
2018-05-14T09:25:49.467Z,4.20
2018-05-14T09:28:17.725Z,3.67
2018-05-14T09:30:46.662Z,4.43
2018-05-14T09:33:14.670Z,3.97
2018-05-14T09:35:42.977Z,4.20
2018-05-14T09:38:11.862Z,4.13
2018-05-14T09:40:39.950Z,4.30
2018-05-14T09:43:08.052Z,4.00
2018-05-14T09:45:36.959Z,3.93
2018-05-14T09:48:05.420Z,4.00
2018-05-14T09:50:33.650Z,4.57
2018-05-14T09:53:02.810Z,4.43
2018-05-14T09:55:30.786Z,4.40
2018-05-14T09:57:58.815Z,4.57
2018-05-14T10:00:27.453Z,4.57
2018-05-14T10:02:56.448Z,4.10
2018-05-14T10:05:25.242Z,4.80
2018-05-14T10:07:54.124Z,3.87
2018-05-14T10:10:22.914Z,4.70
2018-05-14T10:12:51.149Z,4.13
2018-05-14T10:15:19.451Z,3.70
2018-05-14T10:17:47.681Z,3.73
2018-05-14T10:20:15.833Z,4.10
2018-05-14T10:22:43.891Z,4.87
2018-05-14T10:25:12.697Z,3.80
2018-05-14T10:27:40.902Z,4.50
2018-05-14T10:30:09.138Z,4.03
2018-05-14T10:32:37.189Z,3.77
2018-05-14T10:35:05.327Z,4.20
2018-05-14T10:37:33.562Z,3.70
2018-05-14T10:40:01.975Z,3.93
2018-05-14T10:42:29.926Z,4.07
2018-05-14T10:44:58.708Z,3.73
2018-05-14T10:47:26.690Z,4.50
2018-05-14T10:49:54.937Z,4.53
2018-05-14T10:52:23.295Z,4.20
2018-05-14T10:54:52.346Z,4.13
2018-05-14T10:57:20.403Z,4.17
2018-05-14T10:59:49.135Z,3.87
2018-05-14T11:02:18.093Z,4.33
2018-05-14T11:04:46.526Z,4.10
2018-05-14T11:07:15.847Z,3.70
2018-05-14T11:09:43.837Z,3.90
2018-05-14T11:12:11.968Z,4.17
2018-05-14T11:14:40.742Z,3.87
2018-05-14T11:17:09.502Z,4.50
2018-05-14T11:19:37.823Z,4.07
2018-05-14T11:22:06.008Z,4.30
2018-05-14T11:24:34.453Z,4.00
2018-05-14T11:27:03.270Z,3.70
2018-05-14T11:29:32.852Z,3.73
2018-05-14T11:32:02.004Z,4.23
2018-05-14T11:34:30.253Z,4.13
2018-05-14T11:36:58.382Z,4.17
2018-05-14T11:39:26.600Z,4.27
2018-05-14T11:41:55.044Z,4.00
2018-05-14T11:44:24.004Z,3.40
2018-05-14T11:46:52.148Z,3.70
2018-05-14T11:49:21.017Z,3.70
2018-05-14T11:51:49.838Z,3.70
2018-05-14T11:54:17.935Z,4.37
2018-05-14T11:56:46.400Z,3.27
2018-05-14T11:59:14.577Z,3.70
2018-05-14T12:01:42.673Z,6.50
2018-05-14T12:04:10.789Z,3.80
2018-05-14T12:06:39.005Z,3.20
2018-05-14T12:09:07.331Z,4.03
2018-05-14T12:11:36.134Z,3.70
2018-05-14T12:14:04.278Z,4.13
2018-05-14T12:16:33.165Z,3.37
2018-05-14T12:19:02.232Z,4.00
2018-05-14T12:21:30.301Z,3.87
2018-05-14T12:24:00.304Z,3.77
2018-05-14T12:26:28.526Z,3.50
2018-05-14T12:28:57.494Z,3.80
2018-05-14T12:31:25.632Z,3.40
2018-05-14T12:33:53.829Z,3.60
2018-05-14T12:36:22.997Z,4.13
2018-05-14T12:38:51.168Z,3.37
2018-05-14T12:41:19.270Z,3.53
2018-05-14T12:43:47.415Z,3.67
2018-05-14T12:46:16.285Z,3.73
2018-05-14T12:48:44.608Z,4.00
2018-05-14T12:51:13.608Z,3.20
2018-05-14T12:53:41.796Z,3.30
2018-05-14T12:56:10.679Z,3.50
2018-05-14T12:58:38.691Z,3.30
2018-05-14T13:01:07.064Z,3.77
2018-05-14T13:03:35.418Z,3.50
2018-05-14T13:06:03.636Z,3.50
2018-05-14T13:08:31.796Z,3.70
2018-05-14T13:11:00.154Z,3.20
2018-05-14T13:13:30.050Z,3.20
2018-05-14T13:15:59.630Z,3.30
2018-05-14T13:18:28.609Z,3.30
2018-05-14T13:20:56.942Z,3.10
2018-05-14T13:23:25.044Z,3.03
2018-05-14T13:25:53.136Z,3.63
2018-05-14T13:28:21.543Z,3.10
2018-05-14T13:30:50.030Z,3.17
2018-05-14T13:33:18.411Z,2.90
2018-05-14T13:35:47.291Z,3.00
2018-05-14T13:38:16.169Z,3.00
2018-05-14T13:40:44.243Z,3.27
2018-05-14T13:43:12.708Z,3.50
2018-05-14T13:45:40.892Z,3.00
2018-05-14T13:48:09.482Z,2.70
2018-05-14T13:50:37.627Z,3.33
2018-05-14T13:53:05.920Z,3.37
2018-05-14T13:55:34.245Z,3.20
2018-05-14T13:58:02.371Z,3.03
2018-05-14T14:00:30.724Z,2.90
2018-05-14T14:02:59.756Z,2.97
2018-05-14T14:05:28.136Z,3.47
2018-05-14T14:07:56.473Z,2.73
2018-05-14T14:10:24.660Z,2.70
2018-05-14T14:12:53.381Z,2.70
2018-05-14T14:15:22.321Z,3.00
2018-05-14T14:17:50.424Z,3.00
2018-05-14T14:20:18.528Z,3.30
2018-05-14T14:22:47.598Z,3.50
2018-05-14T14:25:16.704Z,3.23
2018-05-14T14:27:45.494Z,3.30
2018-05-14T14:30:14.487Z,3.50
2018-05-14T14:32:43.685Z,3.23
2018-05-14T14:35:13.411Z,3.20
2018-05-14T14:37:42.435Z,3.53
2018-05-14T14:40:10.708Z,3.10
2018-05-14T14:42:39.023Z,3.00
2018-05-14T14:45:08.061Z,3.70
2018-05-14T14:47:36.104Z,3.13
2018-05-14T14:50:05.141Z,4.50
2018-05-14T14:52:33.338Z,3.57
2018-05-14T14:55:01.426Z,2.90
2018-05-14T14:57:29.549Z,3.07
2018-05-14T14:59:57.939Z,3.27
2018-05-14T15:02:27.677Z,4.33
2018-05-14T15:04:55.931Z,3.63
2018-05-14T15:07:24.108Z,4.30
2018-05-14T15:09:52.218Z,3.27
2018-05-14T15:12:20.549Z,4.17
2018-05-14T15:14:48.628Z,3.00
2018-05-14T15:17:16.904Z,3.17
2018-05-14T15:19:44.992Z,3.23
2018-05-14T15:22:13.248Z,3.27
2018-05-14T15:24:41.857Z,3.33
2018-05-14T15:27:10.818Z,3.10
2018-05-14T15:29:38.988Z,2.77
2018-05-14T15:32:07.900Z,3.13
2018-05-14T15:34:36.392Z,3.37
2018-05-14T15:37:05.558Z,2.97
2018-05-14T15:39:33.877Z,2.70
2018-05-14T15:42:02.914Z,3.30
2018-05-14T15:44:32.118Z,2.83
2018-05-14T15:47:00.354Z,3.30
2018-05-14T15:49:29.313Z,2.97
2018-05-14T15:51:57.365Z,2.97
2018-05-14T15:54:25.744Z,2.93
2018-05-14T15:56:54.034Z,3.17
2018-05-14T15:59:22.405Z,3.00
2018-05-14T16:01:50.671Z,3.03
2018-05-14T16:04:19.482Z,3.53
2018-05-14T16:06:47.702Z,3.27
2018-05-14T16:09:16.967Z,2.93
2018-05-14T16:11:45.853Z,3.23
2018-05-14T16:14:14.087Z,2.43
2018-05-14T16:16:42.166Z,2.57
2018-05-14T16:19:11.226Z,2.57
2018-05-14T16:21:41.289Z,2.67
2018-05-14T16:24:10.187Z,2.67
2018-05-14T16:26:38.595Z,3.00
2018-05-14T16:29:06.877Z,2.90
2018-05-14T16:31:35.828Z,2.50
2018-05-14T16:34:04.092Z,2.73
2018-05-14T16:36:32.369Z,2.97
2018-05-14T16:39:00.955Z,3.10
2018-05-14T16:41:29.142Z,2.63
2018-05-14T16:43:57.301Z,3.30
2018-05-14T16:46:25.682Z,2.73
2018-05-14T16:48:53.956Z,2.93
2018-05-14T16:51:22.265Z,2.73
2018-05-14T16:53:51.223Z,2.60
2018-05-14T16:56:20.272Z,2.90
2018-05-14T16:58:49.154Z,2.60
2018-05-14T17:01:18.168Z,3.20
2018-05-14T17:03:47.705Z,2.63
2018-05-14T17:06:16.153Z,3.23
2018-05-14T17:08:44.390Z,2.57
2018-05-14T17:11:12.506Z,3.23
2018-05-14T17:13:41.088Z,3.17
2018-05-14T17:16:09.840Z,3.20
2018-05-14T17:18:38.180Z,2.73
2018-05-14T17:21:06.868Z,2.80
2018-05-14T17:23:35.369Z,2.10
2018-05-14T17:26:04.131Z,2.77
2018-05-14T17:28:32.506Z,2.50
2018-05-14T17:31:00.779Z,2.50
2018-05-14T17:33:29.184Z,2.57
2018-05-14T17:35:57.547Z,2.63
2018-05-14T17:38:27.626Z,2.60
2018-05-14T17:40:57.993Z,2.70
2018-05-14T17:43:26.381Z,2.53
2018-05-14T17:45:54.635Z,3.20
2018-05-14T17:48:23.976Z,2.80
2018-05-14T17:50:53.538Z,3.37
2018-05-14T17:53:22.026Z,2.80
2018-05-14T17:55:51.338Z,3.57
2018-05-14T17:58:19.634Z,3.20
2018-05-14T18:00:48.619Z,2.90
2018-05-14T18:03:17.227Z,3.20
2018-05-14T18:05:45.361Z,3.00
2018-05-14T18:08:13.942Z,2.70
2018-05-14T18:10:42.774Z,2.77
2018-05-14T18:13:10.929Z,3.20
2018-05-14T18:15:40.727Z,2.60
2018-05-14T18:18:09.258Z,2.50
2018-05-14T18:20:37.995Z,2.50
2018-05-14T18:23:14.128Z,3.20
2018-05-14T18:25:48.384Z,3.13
2018-05-14T18:28:17.574Z,2.70
2018-05-14T18:30:46.228Z,2.90
2018-05-14T18:33:15.116Z,2.60
2018-05-14T18:35:43.645Z,2.93
2018-05-14T18:38:11.830Z,2.97
2018-05-14T18:40:40.356Z,2.77
2018-05-14T18:43:08.699Z,2.80
2018-05-14T18:45:37.941Z,2.70
2018-05-14T18:48:06.518Z,2.50
2018-05-14T18:50:35.098Z,2.97
2018-05-14T18:53:04.042Z,2.97
2018-05-14T18:55:32.936Z,5.10
2018-05-14T18:58:02.575Z,4.40
2018-05-14T19:00:31.024Z,3.53
2018-05-14T19:02:59.559Z,3.07
2018-05-14T19:05:27.885Z,2.80
2018-05-14T19:07:56.117Z,2.90
2018-05-14T19:10:28.910Z,3.00
2018-05-14T19:12:58.310Z,2.83
2018-05-14T19:15:32.171Z,3.20
2018-05-14T19:18:01.189Z,3.17
2018-05-14T19:20:29.408Z,2.97
2018-05-14T19:23:02.757Z,2.83
2018-05-14T19:25:30.940Z,2.60
2018-05-14T19:28:03.636Z,2.80
2018-05-14T19:30:31.879Z,3.03
2018-05-14T19:33:00.299Z,3.37
2018-05-14T19:35:34.582Z,2.97
2018-05-14T19:38:02.942Z,3.20
2018-05-14T19:41:03.774Z,3.10
2018-05-14T19:43:31.946Z,3.20
2018-05-14T19:46:00.108Z,3.87
2018-05-14T19:48:28.312Z,3.20
2018-05-14T19:50:56.714Z,3.50
2018-05-14T19:53:24.773Z,3.03
2018-05-14T19:55:52.912Z,3.20
2018-05-14T19:58:21.230Z,3.33
2018-05-14T20:00:49.311Z,2.90
2018-05-14T20:03:17.421Z,3.20
2018-05-14T20:05:46.326Z,3.53
2018-05-14T20:08:14.498Z,3.70
2018-05-14T20:10:42.660Z,3.37
2018-05-14T20:13:10.656Z,3.50
2018-05-14T20:15:41.601Z,3.73
2018-05-14T20:18:09.675Z,4.47
2018-05-14T20:20:38.129Z,3.60
2018-05-14T20:23:06.487Z,3.20
2018-05-14T20:25:34.584Z,3.40
2018-05-14T20:28:02.831Z,3.23
2018-05-14T20:30:30.931Z,3.07
2018-05-14T20:32:59.009Z,3.07
2018-05-14T20:35:28.635Z,3.40
2018-05-14T20:37:56.787Z,2.60
2018-05-14T20:40:25.042Z,3.30
2018-05-14T20:42:53.209Z,3.50
2018-05-14T20:45:22.159Z,3.03
2018-05-14T20:47:51.902Z,3.17
2018-05-14T20:50:19.954Z,3.27
2018-05-14T20:52:48.837Z,3.10
2018-05-14T20:55:17.730Z,3.43
2018-05-14T20:57:46.613Z,4.23
2018-05-14T21:00:14.623Z,3.73
2018-05-14T21:02:42.842Z,3.50
2018-05-14T21:05:12.112Z,3.10
2018-05-14T21:07:40.474Z,3.10
2018-05-14T21:10:08.719Z,3.33
2018-05-14T21:12:36.832Z,3.03
2018-05-14T21:15:04.958Z,3.07
2018-05-14T21:17:33.184Z,3.20
2018-05-14T21:20:01.524Z,3.23
2018-05-14T21:22:30.286Z,3.27
2018-05-14T21:24:59.196Z,2.70
2018-05-14T21:27:28.935Z,2.83
2018-05-14T21:29:57.227Z,3.03
2018-05-14T21:32:26.116Z,3.30
2018-05-14T21:34:54.337Z,3.10
2018-05-14T21:37:23.136Z,2.70
2018-05-14T21:39:52.478Z,30.37
2018-05-14T21:42:20.495Z,17.77
2018-05-14T21:44:49.896Z,3.63
2018-05-14T21:47:19.046Z,5.80
2018-05-14T21:49:47.023Z,3.67
2018-05-14T21:52:15.238Z,3.07
2018-05-14T21:54:43.674Z,10.73
2018-05-14T21:57:11.843Z,6.30
2018-05-14T21:59:39.916Z,4.80
2018-05-14T22:02:07.992Z,3.07
2018-05-14T22:04:36.067Z,4.57
2018-05-14T22:07:04.549Z,3.97
2018-05-14T22:09:32.897Z,3.13
2018-05-14T22:12:00.894Z,3.57
2018-05-14T22:14:29.235Z,4.20
2018-05-14T22:16:57.619Z,3.20
2018-05-14T22:19:25.656Z,3.10
2018-05-14T22:21:54.558Z,3.20
2018-05-14T22:24:23.432Z,3.23
2018-05-14T22:26:52.214Z,2.67
2018-05-14T22:29:20.226Z,2.97
2018-05-14T22:31:48.363Z,3.40
2018-05-14T22:34:17.666Z,3.10
2018-05-14T22:36:46.919Z,3.33
2018-05-14T22:39:15.190Z,3.53
2018-05-14T22:41:44.744Z,3.27
2018-05-14T22:44:12.948Z,3.10
2018-05-14T22:46:41.049Z,3.40
2018-05-14T22:49:10.855Z,3.00
2018-05-14T22:51:39.433Z,3.70
2018-05-14T22:54:08.021Z,3.47
2018-05-14T22:56:36.158Z,3.53
2018-05-14T22:59:05.356Z,3.33
2018-05-14T23:01:33.785Z,3.40
2018-05-14T23:04:01.950Z,3.57
2018-05-14T23:06:31.085Z,3.77
2018-05-14T23:09:00.456Z,3.20
2018-05-14T23:11:28.609Z,3.50
2018-05-14T23:13:57.574Z,3.40
2018-05-14T23:16:25.729Z,3.10
2018-05-14T23:18:54.492Z,3.07
2018-05-14T23:21:23.028Z,3.50
2018-05-14T23:23:51.168Z,3.53
2018-05-14T23:26:20.111Z,3.83
2018-05-14T23:28:48.974Z,3.30
2018-05-14T23:31:17.615Z,3.10
2018-05-14T23:33:45.723Z,3.47
2018-05-14T23:36:14.014Z,3.30
2018-05-14T23:38:42.517Z,3.50
2018-05-14T23:41:11.403Z,3.00
2018-05-14T23:43:39.660Z,3.53
2018-05-14T23:46:08.062Z,3.33
2018-05-14T23:48:36.285Z,3.20
2018-05-14T23:51:05.534Z,3.40
2018-05-14T23:53:33.611Z,3.23
2018-05-14T23:56:02.409Z,3.80
2018-05-14T23:58:30.484Z,3.93
